sensor_id;sensor_type;location;lat;lon;timestamp;temperature;humidity
11188;DHT22;5650;52.700;7.306;2023-07-08T00:01:16;17.90;99.90
11188;DHT22;5650;52.700;7.306;2023-07-08T00:03:44;17.90;99.90
11188;DHT22;5650;52.700;7.306;2023-07-08T00:06:14;17.90;99.90
11188;DHT22;5650;52.700;7.306;2023-07-08T00:08:52;17.90;99.90
11188;DHT22;5650;52.700;7.306;2023-07-08T00:11:25;17.80;99.90
11188;DHT22;5650;52.700;7.306;2023-07-08T00:13:59;17.80;99.90
11188;DHT22;5650;52.700;7.306;2023-07-08T00:16:28;17.70;99.90
11188;DHT22;5650;52.700;7.306;2023-07-08T00:18:55;17.70;99.90
11188;DHT22;5650;52.700;7.306;2023-07-08T00:21:25;17.70;99.90
11188;DHT22;5650;52.700;7.306;2023-07-08T00:23:52;17.70;99.90
11188;DHT22;5650;52.700;7.306;2023-07-08T00:26:25;17.60;99.90
11188;DHT22;5650;52.700;7.306;2023-07-08T00:28:53;17.60;99.90
11188;DHT22;5650;52.700;7.306;2023-07-08T00:31:21;17.60;99.90
11188;DHT22;5650;52.700;7.306;2023-07-08T00:33:51;17.50;99.90
11188;DHT22;5650;52.700;7.306;2023-07-08T00:36:22;17.50;99.90
11188;DHT22;5650;52.700;7.306;2023-07-08T00:38:52;17.50;99.90
11188;DHT22;5650;52.700;7.306;2023-07-08T00:41:22;17.40;99.90
11188;DHT22;5650;52.700;7.306;2023-07-08T00:43:52;17.40;99.90
11188;DHT22;5650;52.700;7.306;2023-07-08T00:46:31;17.40;99.90
11188;DHT22;5650;52.700;7.306;2023-07-08T00:49:20;17.40;99.90
11188;DHT22;5650;52.700;7.306;2023-07-08T00:51:50;17.40;99.90
11188;DHT22;5650;52.700;7.306;2023-07-08T00:54:18;17.30;99.90
11188;DHT22;5650;52.700;7.306;2023-07-08T00:56:49;17.30;99.90
11188;DHT22;5650;52.700;7.306;2023-07-08T00:59:23;17.20;99.90
11188;DHT22;5650;52.700;7.306;2023-07-08T01:01:52;17.20;99.90
11188;DHT22;5650;52.700;7.306;2023-07-08T01:04:24;17.10;99.90
11188;DHT22;5650;52.700;7.306;2023-07-08T01:06:55;17.10;99.90
11188;DHT22;5650;52.700;7.306;2023-07-08T01:09:27;17.10;99.90
11188;DHT22;5650;52.700;7.306;2023-07-08T01:11:57;17.10;99.90
11188;DHT22;5650;52.700;7.306;2023-07-08T01:14:27;17.00;99.90
11188;DHT22;5650;52.700;7.306;2023-07-08T01:16:57;17.00;99.90
11188;DHT22;5650;52.700;7.306;2023-07-08T01:19:26;17.00;99.90
11188;DHT22;5650;52.700;7.306;2023-07-08T01:22:01;17.00;99.90
11188;DHT22;5650;52.700;7.306;2023-07-08T01:24:30;16.90;99.90
11188;DHT22;5650;52.700;7.306;2023-07-08T01:26:58;16.90;99.90
11188;DHT22;5650;52.700;7.306;2023-07-08T01:29:29;16.90;99.90
11188;DHT22;5650;52.700;7.306;2023-07-08T01:32:00;16.90;99.90
11188;DHT22;5650;52.700;7.306;2023-07-08T01:34:32;16.80;99.90
11188;DHT22;5650;52.700;7.306;2023-07-08T01:37:02;16.80;99.90
11188;DHT22;5650;52.700;7.306;2023-07-08T01:39:32;16.70;99.90
11188;DHT22;5650;52.700;7.306;2023-07-08T01:41:59;16.70;99.90
11188;DHT22;5650;52.700;7.306;2023-07-08T01:44:29;16.60;99.90
11188;DHT22;5650;52.700;7.306;2023-07-08T01:47:11;16.60;99.90
11188;DHT22;5650;52.700;7.306;2023-07-08T01:49:40;16.60;99.90
11188;DHT22;5650;52.700;7.306;2023-07-08T01:52:10;16.60;99.90
11188;DHT22;5650;52.700;7.306;2023-07-08T01:54:38;16.50;99.90
11188;DHT22;5650;52.700;7.306;2023-07-08T01:57:08;16.50;99.90
11188;DHT22;5650;52.700;7.306;2023-07-08T01:59:38;16.50;99.90
11188;DHT22;5650;52.700;7.306;2023-07-08T02:02:06;16.40;99.90
11188;DHT22;5650;52.700;7.306;2023-07-08T02:04:33;16.40;99.90
11188;DHT22;5650;52.700;7.306;2023-07-08T02:07:00;16.40;99.90
11188;DHT22;5650;52.700;7.306;2023-07-08T02:09:29;16.40;99.90
11188;DHT22;5650;52.700;7.306;2023-07-08T02:11:56;16.30;99.90
11188;DHT22;5650;52.700;7.306;2023-07-08T02:14:23;16.30;99.90
11188;DHT22;5650;52.700;7.306;2023-07-08T02:16:52;16.30;99.90
11188;DHT22;5650;52.700;7.306;2023-07-08T02:19:25;16.30;99.90
11188;DHT22;5650;52.700;7.306;2023-07-08T02:21:53;16.20;99.90
11188;DHT22;5650;52.700;7.306;2023-07-08T02:24:20;16.20;99.90
11188;DHT22;5650;52.700;7.306;2023-07-08T02:26:52;16.20;99.90
11188;DHT22;5650;52.700;7.306;2023-07-08T02:29:19;16.20;99.90
11188;DHT22;5650;52.700;7.306;2023-07-08T02:31:46;16.10;99.90
11188;DHT22;5650;52.700;7.306;2023-07-08T02:34:13;16.10;99.90
11188;DHT22;5650;52.700;7.306;2023-07-08T02:36:43;16.10;99.90
11188;DHT22;5650;52.700;7.306;2023-07-08T02:39:10;16.10;99.90
11188;DHT22;5650;52.700;7.306;2023-07-08T02:41:37;16.10;99.90
11188;DHT22;5650;52.700;7.306;2023-07-08T02:44:12;16.10;99.90
11188;DHT22;5650;52.700;7.306;2023-07-08T02:46:39;16.10;99.90
11188;DHT22;5650;52.700;7.306;2023-07-08T02:49:06;16.10;99.90
11188;DHT22;5650;52.700;7.306;2023-07-08T02:51:39;16.00;99.90
11188;DHT22;5650;52.700;7.306;2023-07-08T02:54:15;16.00;99.90
11188;DHT22;5650;52.700;7.306;2023-07-08T02:56:45;16.00;99.90
11188;DHT22;5650;52.700;7.306;2023-07-08T02:59:19;16.00;99.90
11188;DHT22;5650;52.700;7.306;2023-07-08T03:01:48;16.00;99.90
11188;DHT22;5650;52.700;7.306;2023-07-08T03:04:16;16.00;99.90
11188;DHT22;5650;52.700;7.306;2023-07-08T03:06:45;16.00;99.90
11188;DHT22;5650;52.700;7.306;2023-07-08T03:09:18;15.90;99.90
11188;DHT22;5650;52.700;7.306;2023-07-08T03:11:45;15.90;99.90
11188;DHT22;5650;52.700;7.306;2023-07-08T03:14:12;15.90;99.90
11188;DHT22;5650;52.700;7.306;2023-07-08T03:16:43;15.90;99.90
11188;DHT22;5650;52.700;7.306;2023-07-08T03:19:16;15.80;99.90
11188;DHT22;5650;52.700;7.306;2023-07-08T03:21:50;15.80;99.90
11188;DHT22;5650;52.700;7.306;2023-07-08T03:24:17;15.90;99.90
11188;DHT22;5650;52.700;7.306;2023-07-08T03:26:45;15.90;99.90
11188;DHT22;5650;52.700;7.306;2023-07-08T03:29:16;15.80;99.90
11188;DHT22;5650;52.700;7.306;2023-07-08T03:31:45;15.80;99.90
11188;DHT22;5650;52.700;7.306;2023-07-08T03:34:15;15.80;99.90
11188;DHT22;5650;52.700;7.306;2023-07-08T03:36:43;15.80;99.90
11188;DHT22;5650;52.700;7.306;2023-07-08T03:39:14;15.80;99.90
11188;DHT22;5650;52.700;7.306;2023-07-08T03:41:41;15.80;99.90
11188;DHT22;5650;52.700;7.306;2023-07-08T03:44:09;15.80;99.90
11188;DHT22;5650;52.700;7.306;2023-07-08T03:46:36;15.80;99.90
11188;DHT22;5650;52.700;7.306;2023-07-08T03:49:06;15.80;99.90
11188;DHT22;5650;52.700;7.306;2023-07-08T03:51:35;15.80;99.90
11188;DHT22;5650;52.700;7.306;2023-07-08T03:54:03;15.80;99.90
11188;DHT22;5650;52.700;7.306;2023-07-08T03:56:40;15.90;99.90
11188;DHT22;5650;52.700;7.306;2023-07-08T03:59:14;15.90;99.90
11188;DHT22;5650;52.700;7.306;2023-07-08T04:01:41;15.90;99.90
11188;DHT22;5650;52.700;7.306;2023-07-08T04:04:14;15.90;99.90
11188;DHT22;5650;52.700;7.306;2023-07-08T04:06:41;15.90;99.90
11188;DHT22;5650;52.700;7.306;2023-07-08T04:09:09;16.00;99.90
11188;DHT22;5650;52.700;7.306;2023-07-08T04:11:36;16.20;99.90
11188;DHT22;5650;52.700;7.306;2023-07-08T04:14:03;16.60;99.90
11188;DHT22;5650;52.700;7.306;2023-07-08T04:16:42;17.00;99.90
11188;DHT22;5650;52.700;7.306;2023-07-08T04:19:15;17.50;99.90
11188;DHT22;5650;52.700;7.306;2023-07-08T04:21:45;17.90;99.90
11188;DHT22;5650;52.700;7.306;2023-07-08T04:24:17;18.20;99.90
11188;DHT22;5650;52.700;7.306;2023-07-08T04:26:46;18.50;99.90
11188;DHT22;5650;52.700;7.306;2023-07-08T04:29:17;18.50;99.90
11188;DHT22;5650;52.700;7.306;2023-07-08T04:31:45;18.40;99.90
11188;DHT22;5650;52.700;7.306;2023-07-08T04:34:14;18.40;99.90
11188;DHT22;5650;52.700;7.306;2023-07-08T04:36:50;18.40;99.90
11188;DHT22;5650;52.700;7.306;2023-07-08T04:39:18;18.30;99.90
11188;DHT22;5650;52.700;7.306;2023-07-08T04:41:45;18.20;99.90
11188;DHT22;5650;52.700;7.306;2023-07-08T04:44:15;18.20;99.90
11188;DHT22;5650;52.700;7.306;2023-07-08T04:46:46;18.10;99.90
11188;DHT22;5650;52.700;7.306;2023-07-08T04:49:20;18.10;99.90
11188;DHT22;5650;52.700;7.306;2023-07-08T04:51:54;18.10;99.90
11188;DHT22;5650;52.700;7.306;2023-07-08T04:54:23;18.00;99.90
11188;DHT22;5650;52.700;7.306;2023-07-08T04:56:51;18.00;99.90
11188;DHT22;5650;52.700;7.306;2023-07-08T04:59:22;18.00;99.90
11188;DHT22;5650;52.700;7.306;2023-07-08T05:01:53;18.30;99.90
11188;DHT22;5650;52.700;7.306;2023-07-08T05:04:22;18.70;99.90
11188;DHT22;5650;52.700;7.306;2023-07-08T05:06:52;19.00;99.90
11188;DHT22;5650;52.700;7.306;2023-07-08T05:09:26;19.10;99.90
11188;DHT22;5650;52.700;7.306;2023-07-08T05:11:54;19.20;99.90
11188;DHT22;5650;52.700;7.306;2023-07-08T05:14:26;19.20;99.90
11188;DHT22;5650;52.700;7.306;2023-07-08T05:17:01;19.20;99.90
11188;DHT22;5650;52.700;7.306;2023-07-08T05:19:30;19.20;99.90
11188;DHT22;5650;52.700;7.306;2023-07-08T05:22:00;19.20;99.90
11188;DHT22;5650;52.700;7.306;2023-07-08T05:24:34;19.50;99.90
11188;DHT22;5650;52.700;7.306;2023-07-08T05:27:03;20.00;99.90
11188;DHT22;5650;52.700;7.306;2023-07-08T05:29:30;20.50;99.90
11188;DHT22;5650;52.700;7.306;2023-07-08T05:32:00;21.20;99.90
11188;DHT22;5650;52.700;7.306;2023-07-08T05:34:29;21.70;99.90
11188;DHT22;5650;52.700;7.306;2023-07-08T05:36:57;22.10;99.90
11188;DHT22;5650;52.700;7.306;2023-07-08T05:39:26;22.50;99.90
11188;DHT22;5650;52.700;7.306;2023-07-08T05:41:55;22.90;99.90
11188;DHT22;5650;52.700;7.306;2023-07-08T05:44:26;23.20;99.90
11188;DHT22;5650;52.700;7.306;2023-07-08T05:46:56;23.40;99.90
11188;DHT22;5650;52.700;7.306;2023-07-08T05:49:30;23.70;99.90
11188;DHT22;5650;52.700;7.306;2023-07-08T05:51:59;23.70;99.90
11188;DHT22;5650;52.700;7.306;2023-07-08T05:54:31;23.70;99.90
11188;DHT22;5650;52.700;7.306;2023-07-08T05:56:58;23.80;99.90
11188;DHT22;5650;52.700;7.306;2023-07-08T05:59:25;24.10;99.80
11188;DHT22;5650;52.700;7.306;2023-07-08T06:01:55;24.10;99.40
11188;DHT22;5650;52.700;7.306;2023-07-08T06:04:22;24.40;99.00
11188;DHT22;5650;52.700;7.306;2023-07-08T06:07:00;24.40;98.60
11188;DHT22;5650;52.700;7.306;2023-07-08T06:09:28;24.50;98.30
11188;DHT22;5650;52.700;7.306;2023-07-08T06:11:55;24.50;98.00
11188;DHT22;5650;52.700;7.306;2023-07-08T06:14:28;24.70;97.90
11188;DHT22;5650;52.700;7.306;2023-07-08T06:16:57;25.00;97.40
11188;DHT22;5650;52.700;7.306;2023-07-08T06:19:24;25.00;97.00
11188;DHT22;5650;52.700;7.306;2023-07-08T06:21:51;25.20;96.50
11188;DHT22;5650;52.700;7.306;2023-07-08T06:24:20;25.10;96.30
11188;DHT22;5650;52.700;7.306;2023-07-08T06:26:47;25.10;96.20
11188;DHT22;5650;52.700;7.306;2023-07-08T06:29:14;25.20;96.20
11188;DHT22;5650;52.700;7.306;2023-07-08T06:31:45;25.30;95.80
11188;DHT22;5650;52.700;7.306;2023-07-08T06:34:12;25.50;95.60
11188;DHT22;5650;52.700;7.306;2023-07-08T06:36:39;25.60;95.40
11188;DHT22;5650;52.700;7.306;2023-07-08T06:39:09;25.80;95.10
11188;DHT22;5650;52.700;7.306;2023-07-08T06:41:38;25.90;94.80
11188;DHT22;5650;52.700;7.306;2023-07-08T06:44:08;26.00;94.60
11188;DHT22;5650;52.700;7.306;2023-07-08T06:46:36;26.10;94.60
11188;DHT22;5650;52.700;7.306;2023-07-08T06:49:03;26.30;94.30
11188;DHT22;5650;52.700;7.306;2023-07-08T06:51:34;26.50;93.80
11188;DHT22;5650;52.700;7.306;2023-07-08T06:54:02;26.50;93.30
11188;DHT22;5650;52.700;7.306;2023-07-08T06:56:41;26.50;93.20
11188;DHT22;5650;52.700;7.306;2023-07-08T06:59:16;26.60;93.00
11188;DHT22;5650;52.700;7.306;2023-07-08T07:01:43;26.70;92.90
11188;DHT22;5650;52.700;7.306;2023-07-08T07:04:10;26.70;92.60
11188;DHT22;5650;52.700;7.306;2023-07-08T07:06:37;26.60;92.40
11188;DHT22;5650;52.700;7.306;2023-07-08T07:09:04;26.70;92.30
11188;DHT22;5650;52.700;7.306;2023-07-08T07:11:34;26.60;92.40
11188;DHT22;5650;52.700;7.306;2023-07-08T07:14:03;26.70;92.50
11188;DHT22;5650;52.700;7.306;2023-07-08T07:16:30;26.90;92.40
11188;DHT22;5650;52.700;7.306;2023-07-08T07:19:01;27.30;92.00
11188;DHT22;5650;52.700;7.306;2023-07-08T07:21:31;27.60;92.10
11188;DHT22;5650;52.700;7.306;2023-07-08T07:24:03;27.80;91.10
11188;DHT22;5650;52.700;7.306;2023-07-08T07:26:32;27.90;91.00
11188;DHT22;5650;52.700;7.306;2023-07-08T07:28:59;27.90;90.70
11188;DHT22;5650;52.700;7.306;2023-07-08T07:31:29;28.20;90.60
11188;DHT22;5650;52.700;7.306;2023-07-08T07:33:58;28.50;90.30
11188;DHT22;5650;52.700;7.306;2023-07-08T07:36:25;28.50;89.70
11188;DHT22;5650;52.700;7.306;2023-07-08T07:38:55;28.70;88.10
11188;DHT22;5650;52.700;7.306;2023-07-08T07:41:22;28.70;87.60
11188;DHT22;5650;52.700;7.306;2023-07-08T07:43:49;29.00;86.30
11188;DHT22;5650;52.700;7.306;2023-07-08T07:46:17;29.00;86.60
11188;DHT22;5650;52.700;7.306;2023-07-08T07:48:45;29.20;85.80
11188;DHT22;5650;52.700;7.306;2023-07-08T07:51:13;29.40;86.10
11188;DHT22;5650;52.700;7.306;2023-07-08T07:53:41;29.70;86.00
11188;DHT22;5650;52.700;7.306;2023-07-08T07:56:11;29.90;83.80
11188;DHT22;5650;52.700;7.306;2023-07-08T07:58:38;30.00;83.30
11188;DHT22;5650;52.700;7.306;2023-07-08T08:01:08;30.10;82.90
11188;DHT22;5650;52.700;7.306;2023-07-08T08:03:48;30.20;80.80
11188;DHT22;5650;52.700;7.306;2023-07-08T08:06:18;29.90;80.30
11188;DHT22;5650;52.700;7.306;2023-07-08T08:08:48;29.70;81.20
11188;DHT22;5650;52.700;7.306;2023-07-08T08:11:16;29.80;82.70
11188;DHT22;5650;52.700;7.306;2023-07-08T08:13:45;29.90;81.30
11188;DHT22;5650;52.700;7.306;2023-07-08T08:16:15;29.90;82.00
11188;DHT22;5650;52.700;7.306;2023-07-08T08:18:45;29.90;82.00
11188;DHT22;5650;52.700;7.306;2023-07-08T08:21:16;29.50;82.10
11188;DHT22;5650;52.700;7.306;2023-07-08T08:23:43;29.30;82.10
11188;DHT22;5650;52.700;7.306;2023-07-08T08:26:16;29.20;82.60
11188;DHT22;5650;52.700;7.306;2023-07-08T08:28:43;29.00;83.00
11188;DHT22;5650;52.700;7.306;2023-07-08T08:31:16;28.80;83.80
11188;DHT22;5650;52.700;7.306;2023-07-08T08:33:52;28.80;83.90
11188;DHT22;5650;52.700;7.306;2023-07-08T08:36:20;28.80;84.10
11188;DHT22;5650;52.700;7.306;2023-07-08T08:38:48;28.60;83.80
11188;DHT22;5650;52.700;7.306;2023-07-08T08:41:17;28.40;84.20
11188;DHT22;5650;52.700;7.306;2023-07-08T08:43:47;28.10;84.40
11188;DHT22;5650;52.700;7.306;2023-07-08T08:46:23;28.00;86.00
11188;DHT22;5650;52.700;7.306;2023-07-08T08:48:56;27.80;86.10
11188;DHT22;5650;52.700;7.306;2023-07-08T08:51:26;27.80;86.80
11188;DHT22;5650;52.700;7.306;2023-07-08T08:53:56;27.80;86.60
11188;DHT22;5650;52.700;7.306;2023-07-08T08:56:28;27.80;86.40
11188;DHT22;5650;52.700;7.306;2023-07-08T08:59:04;27.90;86.60
11188;DHT22;5650;52.700;7.306;2023-07-08T09:01:34;27.90;86.60
11188;DHT22;5650;52.700;7.306;2023-07-08T09:04:06;27.70;86.50
11188;DHT22;5650;52.700;7.306;2023-07-08T09:06:39;27.60;87.20
11188;DHT22;5650;52.700;7.306;2023-07-08T09:09:12;27.60;86.50
11188;DHT22;5650;52.700;7.306;2023-07-08T09:11:48;27.70;86.70
11188;DHT22;5650;52.700;7.306;2023-07-08T09:14:20;27.80;86.80
11188;DHT22;5650;52.700;7.306;2023-07-08T09:16:56;27.90;86.70
11188;DHT22;5650;52.700;7.306;2023-07-08T09:19:26;28.10;85.30
11188;DHT22;5650;52.700;7.306;2023-07-08T09:22:00;28.30;85.50
11188;DHT22;5650;52.700;7.306;2023-07-08T09:24:36;28.50;86.00
11188;DHT22;5650;52.700;7.306;2023-07-08T09:27:06;28.50;85.80
11188;DHT22;5650;52.700;7.306;2023-07-08T09:29:33;28.40;85.90
11188;DHT22;5650;52.700;7.306;2023-07-08T09:32:13;28.20;86.10
11188;DHT22;5650;52.700;7.306;2023-07-08T09:34:43;28.00;86.50
11188;DHT22;5650;52.700;7.306;2023-07-08T09:37:30;27.80;87.30
11188;DHT22;5650;52.700;7.306;2023-07-08T09:39:59;27.50;88.00
11188;DHT22;5650;52.700;7.306;2023-07-08T09:42:29;27.50;89.00
11188;DHT22;5650;52.700;7.306;2023-07-08T09:44:58;27.50;89.00
11188;DHT22;5650;52.700;7.306;2023-07-08T09:47:29;27.30;89.10
11188;DHT22;5650;52.700;7.306;2023-07-08T09:50:17;27.30;89.50
11188;DHT22;5650;52.700;7.306;2023-07-08T09:52:48;27.30;90.20
11188;DHT22;5650;52.700;7.306;2023-07-08T09:55:16;27.30;90.40
11188;DHT22;5650;52.700;7.306;2023-07-08T09:57:50;27.50;89.90
11188;DHT22;5650;52.700;7.306;2023-07-08T10:00:32;27.50;90.00
11188;DHT22;5650;52.700;7.306;2023-07-08T10:03:05;27.60;89.90
11188;DHT22;5650;52.700;7.306;2023-07-08T10:05:42;27.50;88.30
11188;DHT22;5650;52.700;7.306;2023-07-08T10:11:27;27.70;89.70
11188;DHT22;5650;52.700;7.306;2023-07-08T10:17:05;27.80;88.60
11188;DHT22;5650;52.700;7.306;2023-07-08T10:19:35;27.90;87.50
11188;DHT22;5650;52.700;7.306;2023-07-08T10:22:15;27.90;87.60
11188;DHT22;5650;52.700;7.306;2023-07-08T10:25:00;27.90;87.30
11188;DHT22;5650;52.700;7.306;2023-07-08T10:27:54;28.00;88.50
11188;DHT22;5650;52.700;7.306;2023-07-08T10:30:35;28.20;88.80
11188;DHT22;5650;52.700;7.306;2023-07-08T10:33:30;28.30;88.30
11188;DHT22;5650;52.700;7.306;2023-07-08T10:36:19;28.30;87.20
11188;DHT22;5650;52.700;7.306;2023-07-08T10:42:01;28.50;87.30
11188;DHT22;5650;52.700;7.306;2023-07-08T10:44:53;28.50;86.00
11188;DHT22;5650;52.700;7.306;2023-07-08T10:47:44;28.60;85.70
11188;DHT22;5650;52.700;7.306;2023-07-08T10:50:33;28.60;86.10
11188;DHT22;5650;52.700;7.306;2023-07-08T10:53:34;28.60;86.30
11188;DHT22;5650;52.700;7.306;2023-07-08T10:56:11;28.70;86.70
11188;DHT22;5650;52.700;7.306;2023-07-08T10:58:52;28.70;86.60
11188;DHT22;5650;52.700;7.306;2023-07-08T11:01:34;28.80;86.70
11188;DHT22;5650;52.700;7.306;2023-07-08T11:04:15;29.00;86.10
11188;DHT22;5650;52.700;7.306;2023-07-08T11:06:50;29.10;86.40
11188;DHT22;5650;52.700;7.306;2023-07-08T11:09:23;29.10;85.10
11188;DHT22;5650;52.700;7.306;2023-07-08T11:11:56;29.30;84.80
11188;DHT22;5650;52.700;7.306;2023-07-08T11:14:30;29.40;84.90
11188;DHT22;5650;52.700;7.306;2023-07-08T11:17:07;29.40;84.30
11188;DHT22;5650;52.700;7.306;2023-07-08T11:19:45;29.50;84.50
11188;DHT22;5650;52.700;7.306;2023-07-08T11:22:18;29.60;83.90
11188;DHT22;5650;52.700;7.306;2023-07-08T11:24:49;29.70;83.70
11188;DHT22;5650;52.700;7.306;2023-07-08T11:27:21;29.70;82.20
11188;DHT22;5650;52.700;7.306;2023-07-08T11:29:55;29.80;81.70
11188;DHT22;5650;52.700;7.306;2023-07-08T11:32:26;29.90;80.70
11188;DHT22;5650;52.700;7.306;2023-07-08T11:34:55;30.00;80.90
11188;DHT22;5650;52.700;7.306;2023-07-08T11:37:24;30.10;79.30
11188;DHT22;5650;52.700;7.306;2023-07-08T11:39:57;30.10;79.00
11188;DHT22;5650;52.700;7.306;2023-07-08T11:42:34;30.10;79.20
11188;DHT22;5650;52.700;7.306;2023-07-08T11:45:08;30.20;79.10
11188;DHT22;5650;52.700;7.306;2023-07-08T11:47:40;30.30;78.60
11188;DHT22;5650;52.700;7.306;2023-07-08T11:50:18;30.30;74.70
11188;DHT22;5650;52.700;7.306;2023-07-08T11:52:53;30.40;72.70
11188;DHT22;5650;52.700;7.306;2023-07-08T11:55:25;30.40;72.20
11188;DHT22;5650;52.700;7.306;2023-07-08T11:57:54;30.50;71.80
11188;DHT22;5650;52.700;7.306;2023-07-08T12:00:26;30.60;71.50
11188;DHT22;5650;52.700;7.306;2023-07-08T12:03:03;30.60;71.60
11188;DHT22;5650;52.700;7.306;2023-07-08T12:05:35;30.60;71.70
11188;DHT22;5650;52.700;7.306;2023-07-08T12:08:13;30.70;71.80
11188;DHT22;5650;52.700;7.306;2023-07-08T12:10:46;30.70;71.80
11188;DHT22;5650;52.700;7.306;2023-07-08T12:13:14;30.70;70.00
11188;DHT22;5650;52.700;7.306;2023-07-08T12:15:44;30.60;70.50
11188;DHT22;5650;52.700;7.306;2023-07-08T12:18:15;30.60;70.50
11188;DHT22;5650;52.700;7.306;2023-07-08T12:20:46;30.60;70.50
11188;DHT22;5650;52.700;7.306;2023-07-08T12:23:18;30.70;72.00
11188;DHT22;5650;52.700;7.306;2023-07-08T12:25:46;30.80;71.80
11188;DHT22;5650;52.700;7.306;2023-07-08T12:28:15;30.80;71.60
11188;DHT22;5650;52.700;7.306;2023-07-08T12:30:45;30.90;71.20
11188;DHT22;5650;52.700;7.306;2023-07-08T12:33:14;31.00;70.80
11188;DHT22;5650;52.700;7.306;2023-07-08T12:35:44;31.00;69.90
11188;DHT22;5650;52.700;7.306;2023-07-08T12:38:19;31.00;70.80
11188;DHT22;5650;52.700;7.306;2023-07-08T12:40:50;31.00;69.80
11188;DHT22;5650;52.700;7.306;2023-07-08T12:43:17;31.00;68.90
11188;DHT22;5650;52.700;7.306;2023-07-08T12:45:46;31.00;69.40
11188;DHT22;5650;52.700;7.306;2023-07-08T12:48:13;31.00;69.30
11188;DHT22;5650;52.700;7.306;2023-07-08T12:50:41;31.10;70.00
11188;DHT22;5650;52.700;7.306;2023-07-08T12:53:11;31.20;68.70
11188;DHT22;5650;52.700;7.306;2023-07-08T12:55:40;31.20;68.70
11188;DHT22;5650;52.700;7.306;2023-07-08T12:58:13;31.20;68.20
11188;DHT22;5650;52.700;7.306;2023-07-08T13:00:42;31.30;68.20
11188;DHT22;5650;52.700;7.306;2023-07-08T13:03:15;31.40;65.70
11188;DHT22;5650;52.700;7.306;2023-07-08T13:05:44;31.30;65.80
11188;DHT22;5650;52.700;7.306;2023-07-08T13:08:12;31.30;67.00
11188;DHT22;5650;52.700;7.306;2023-07-08T13:10:40;31.30;66.50
11188;DHT22;5650;52.700;7.306;2023-07-08T13:13:15;31.30;66.80
11188;DHT22;5650;52.700;7.306;2023-07-08T13:15:43;31.30;65.80
11188;DHT22;5650;52.700;7.306;2023-07-08T13:18:16;31.30;65.00
11188;DHT22;5650;52.700;7.306;2023-07-08T13:21:02;31.30;66.70
11188;DHT22;5650;52.700;7.306;2023-07-08T13:23:35;31.30;67.10
11188;DHT22;5650;52.700;7.306;2023-07-08T13:26:16;31.30;66.40
11188;DHT22;5650;52.700;7.306;2023-07-08T13:29:11;31.40;65.10
11188;DHT22;5650;52.700;7.306;2023-07-08T13:32:04;31.50;63.60
11188;DHT22;5650;52.700;7.306;2023-07-08T13:34:37;31.60;63.60
11188;DHT22;5650;52.700;7.306;2023-07-08T13:39:57;31.60;62.60
11188;DHT22;5650;52.700;7.306;2023-07-08T13:42:33;31.60;61.60
11188;DHT22;5650;52.700;7.306;2023-07-08T13:45:27;31.60;61.20
11188;DHT22;5650;52.700;7.306;2023-07-08T13:48:12;31.60;60.70
11188;DHT22;5650;52.700;7.306;2023-07-08T13:50:47;31.60;62.50
11188;DHT22;5650;52.700;7.306;2023-07-08T13:53:23;31.60;62.20
11188;DHT22;5650;52.700;7.306;2023-07-08T13:56:01;31.70;62.40
11188;DHT22;5650;52.700;7.306;2023-07-08T13:58:30;31.70;62.50
11188;DHT22;5650;52.700;7.306;2023-07-08T14:00:57;31.70;60.60
11188;DHT22;5650;52.700;7.306;2023-07-08T14:03:25;31.70;59.90
11188;DHT22;5650;52.700;7.306;2023-07-08T14:05:54;31.70;61.00
11188;DHT22;5650;52.700;7.306;2023-07-08T14:08:25;31.70;61.60
11188;DHT22;5650;52.700;7.306;2023-07-08T14:10:52;31.80;62.60
11188;DHT22;5650;52.700;7.306;2023-07-08T14:13:22;31.80;63.30
11188;DHT22;5650;52.700;7.306;2023-07-08T14:15:53;31.80;62.90
11188;DHT22;5650;52.700;7.306;2023-07-08T14:18:30;31.80;61.10
11188;DHT22;5650;52.700;7.306;2023-07-08T14:20:59;31.80;60.30
11188;DHT22;5650;52.700;7.306;2023-07-08T14:23:26;31.80;59.90
11188;DHT22;5650;52.700;7.306;2023-07-08T14:25:56;31.80;59.80
11188;DHT22;5650;52.700;7.306;2023-07-08T14:28:23;31.80;58.80
11188;DHT22;5650;52.700;7.306;2023-07-08T14:30:53;31.80;58.90
11188;DHT22;5650;52.700;7.306;2023-07-08T14:33:20;31.80;58.30
11188;DHT22;5650;52.700;7.306;2023-07-08T14:35:48;31.80;58.40
11188;DHT22;5650;52.700;7.306;2023-07-08T14:38:16;31.80;58.90
11188;DHT22;5650;52.700;7.306;2023-07-08T14:40:43;31.90;58.80
11188;DHT22;5650;52.700;7.306;2023-07-08T14:43:16;31.90;58.00
11188;DHT22;5650;52.700;7.306;2023-07-08T14:45:56;31.90;57.80
11188;DHT22;5650;52.700;7.306;2023-07-08T14:48:24;31.90;57.10
11188;DHT22;5650;52.700;7.306;2023-07-08T14:51:08;31.90;57.10
11188;DHT22;5650;52.700;7.306;2023-07-08T14:53:36;31.90;56.40
11188;DHT22;5650;52.700;7.306;2023-07-08T14:56:11;31.90;56.80
11188;DHT22;5650;52.700;7.306;2023-07-08T14:58:46;31.90;57.20
11188;DHT22;5650;52.700;7.306;2023-07-08T15:01:18;31.90;56.90
11188;DHT22;5650;52.700;7.306;2023-07-08T15:03:46;31.90;57.50
11188;DHT22;5650;52.700;7.306;2023-07-08T15:06:13;31.90;56.70
11188;DHT22;5650;52.700;7.306;2023-07-08T15:08:44;31.90;56.60
11188;DHT22;5650;52.700;7.306;2023-07-08T15:11:12;31.90;56.70
11188;DHT22;5650;52.700;7.306;2023-07-08T15:13:39;31.90;56.00
11188;DHT22;5650;52.700;7.306;2023-07-08T15:16:10;31.90;55.80
11188;DHT22;5650;52.700;7.306;2023-07-08T15:18:39;31.90;56.10
11188;DHT22;5650;52.700;7.306;2023-07-08T15:21:09;31.90;55.70
11188;DHT22;5650;52.700;7.306;2023-07-08T15:23:36;31.90;56.10
11188;DHT22;5650;52.700;7.306;2023-07-08T15:26:05;31.90;56.30
11188;DHT22;5650;52.700;7.306;2023-07-08T15:28:43;31.90;55.70
11188;DHT22;5650;52.700;7.306;2023-07-08T15:31:14;31.90;55.60
11188;DHT22;5650;52.700;7.306;2023-07-08T15:33:42;31.90;55.90
11188;DHT22;5650;52.700;7.306;2023-07-08T15:36:10;31.90;56.40
11188;DHT22;5650;52.700;7.306;2023-07-08T15:38:39;32.00;56.10
11188;DHT22;5650;52.700;7.306;2023-07-08T15:41:15;31.90;55.90
11188;DHT22;5650;52.700;7.306;2023-07-08T15:43:44;31.90;55.00
11188;DHT22;5650;52.700;7.306;2023-07-08T15:46:12;31.90;54.90
11188;DHT22;5650;52.700;7.306;2023-07-08T15:48:39;31.90;55.30
11188;DHT22;5650;52.700;7.306;2023-07-08T15:51:11;32.00;55.60
11188;DHT22;5650;52.700;7.306;2023-07-08T15:53:39;32.00;55.50
11188;DHT22;5650;52.700;7.306;2023-07-08T15:56:10;32.00;55.30
11188;DHT22;5650;52.700;7.306;2023-07-08T15:58:39;31.90;54.60
11188;DHT22;5650;52.700;7.306;2023-07-08T16:01:12;31.90;54.10
11188;DHT22;5650;52.700;7.306;2023-07-08T16:03:45;31.90;54.60
11188;DHT22;5650;52.700;7.306;2023-07-08T16:06:12;31.90;54.90
11188;DHT22;5650;52.700;7.306;2023-07-08T16:08:40;31.90;55.40
11188;DHT22;5650;52.700;7.306;2023-07-08T16:11:12;31.90;55.10
11188;DHT22;5650;52.700;7.306;2023-07-08T16:13:41;31.90;54.70
11188;DHT22;5650;52.700;7.306;2023-07-08T16:16:10;32.00;55.00
11188;DHT22;5650;52.700;7.306;2023-07-08T16:18:43;32.00;54.60
11188;DHT22;5650;52.700;7.306;2023-07-08T16:21:10;32.00;54.60
11188;DHT22;5650;52.700;7.306;2023-07-08T16:23:37;32.00;54.40